Time;durP1;ratioP1;P1;durP2;ratioP2;P2;SDS_P1;SDS_P2;PMS_P1;PMS_P2;Temp;Humidity;BMP_temperature;BMP_pressure;BME280_temperature;BME280_humidity;BME280_pressure;Samples;Min_cycle;Max_cycle;Signal;HPM_P1;HPM_P2
2022/06/05 00:01:03;;;;;;;3.13;2.08;;;17.60;70.00;;;;;;2074033;28;20065;-88
2022/06/05 00:02:49;;;;;;;3.67;2.47;;;17.60;70.60;;;;;;2085684;28;20105;-87
2022/06/05 00:04:23;;;;;;;4.13;2.33;;;17.60;70.00;;;;;;2089643;28;20033;-87
2022/06/05 00:05:53;;;;;;;4.30;2.50;;;17.60;70.00;;;;;;2088372;28;20120;-88
2022/06/05 00:07:26;;;;;;;4.13;2.40;;;17.60;70.00;;;;;;2079727;28;20049;-87
2022/06/05 00:09:21;;;;;;;3.45;2.20;;;17.60;70.00;;;;;;2088319;28;20029;-88
2022/06/05 00:10:55;;;;;;;3.90;2.30;;;17.50;69.90;;;;;;2081406;28;20108;-87
2022/06/05 00:12:18;;;;;;;5.28;2.45;;;17.60;70.00;;;;;;2081396;28;20403;-87
2022/06/05 00:13:40;;;;;;;4.75;2.38;;;17.60;70.00;;;;;;2081400;28;20029;-88
2022/06/05 00:14:59;;;;;;;3.22;2.28;;;17.60;70.00;;;;;;2087182;28;20471;-87
2022/06/05 00:16:22;;;;;;;3.78;2.30;;;17.60;70.00;;;;;;2073101;28;20038;-88
2022/06/05 00:17:42;;;;;;;4.03;2.50;;;17.60;70.00;;;;;;2084105;28;20029;-87
2022/06/05 00:19:03;;;;;;;4.57;2.75;;;17.60;70.00;;;;;;2089905;28;20475;-88
2022/06/05 00:20:22;;;;;;;;;;;17.50;70.00;;;;;;2081999;28;20033;-88
2022/06/05 00:21:42;;;;;;;4.10;2.30;;;17.50;70.00;;;;;;2086646;28;19912;-88
2022/06/05 00:23:02;;;;;;;3.70;2.28;;;17.50;69.90;;;;;;2082078;28;20037;-86
2022/06/05 00:24:21;;;;;;;4.47;2.58;;;17.60;70.00;;;;;;2086720;28;20570;-87
2022/06/05 00:26:01;;;;;;;5.00;2.78;;;17.50;70.00;;;;;;2089398;28;20120;-87
2022/06/05 00:28:02;;;;;;;4.10;2.60;;;17.50;70.00;;;;;;2081174;28;20033;-87
2022/06/05 00:29:40;;;;;;;4.03;2.38;;;17.50;69.90;;;;;;2080795;28;20392;-87
2022/06/05 00:31:12;;;;;;;4.03;2.40;;;17.50;69.90;;;;;;2093517;28;20070;-86
2022/06/05 00:33:04;;;;;;;5.25;2.75;;;17.60;70.00;;;;;;2097962;28;20404;-86
2022/06/05 00:34:24;;;;;;;3.80;2.28;;;17.50;70.10;;;;;;2081074;28;20025;-88
2022/06/05 00:35:56;;;;;;;4.13;2.13;;;17.50;70.00;;;;;;2078060;28;20037;-87
2022/06/05 00:37:40;;;;;;;3.95;2.38;;;17.50;70.10;;;;;;2079787;28;20029;-89
2022/06/05 00:39:05;;;;;;;4.63;2.53;;;17.50;70.20;;;;;;2081232;28;20037;-87
2022/06/05 00:40:33;;;;;;;4.55;2.63;;;17.50;70.20;;;;;;2096395;28;20033;-87
2022/06/05 00:41:58;;;;;;;5.03;2.63;;;17.50;70.30;;;;;;2097554;28;20426;-86
2022/06/05 00:43:20;;;;;;;3.60;2.50;;;17.40;70.40;;;;;;2103924;28;20024;-88
2022/06/05 00:44:41;;;;;;;3.97;2.53;;;17.40;70.50;;;;;;2106590;28;20382;-87
2022/06/05 00:46:01;;;;;;;7.30;3.10;;;17.40;70.60;;;;;;2097837;28;20480;-86
2022/06/05 00:47:24;;;;;;;4.32;2.55;;;17.30;70.70;;;;;;2094568;28;20037;-87
2022/06/05 00:48:43;;;;;;;4.93;2.63;;;17.30;70.80;;;;;;2097290;28;20020;-88
2022/06/05 00:50:18;;;;;;;4.65;2.85;;;17.30;70.90;;;;;;2078797;28;20061;-86
2022/06/05 00:51:38;;;;;;;4.70;2.72;;;17.30;71.10;;;;;;2087563;28;20112;-88
2022/06/05 00:53:01;;;;;;;4.35;2.70;;;17.30;71.10;;;;;;2094782;28;20123;-88
2022/06/05 00:54:20;;;;;;;5.68;2.75;;;17.30;71.20;;;;;;2089136;28;20037;-88
2022/06/05 00:55:53;;;;;;;4.47;2.90;;;17.30;71.20;;;;;;2085927;28;20072;-88
2022/06/05 00:57:14;;;;;;;5.28;2.90;;;17.20;71.20;;;;;;2098993;28;20108;-88
2022/06/05 00:58:33;;;;;;;5.18;2.85;;;17.20;71.30;;;;;;2097635;28;20033;-87
2022/06/05 00:59:54;;;;;;;5.20;2.70;;;17.20;71.40;;;;;;2086202;28;20104;-88
2022/06/05 01:01:13;;;;;;;5.15;2.95;;;17.20;71.40;;;;;;2065033;28;20050;-88
2022/06/05 01:02:33;;;;;;;5.03;2.88;;;17.20;71.50;;;;;;2064083;28;20265;-88
2022/06/05 01:03:52;;;;;;;4.53;2.50;;;17.20;71.50;;;;;;2074905;28;20053;-87
2022/06/05 01:05:14;;;;;;;4.80;2.70;;;17.10;71.50;;;;;;2086489;28;20041;-87
2022/06/05 01:06:33;;;;;;;4.18;2.40;;;17.20;71.50;;;;;;2081062;28;20041;-87
2022/06/05 01:07:54;;;;;;;3.72;2.42;;;17.10;71.60;;;;;;2080811;28;20037;-88
2022/06/05 01:09:13;;;;;;;5.93;2.47;;;17.10;71.60;;;;;;2078026;28;20038;-87
2022/06/05 01:10:52;;;;;;;3.28;2.33;;;17.20;71.60;;;;;;2080141;28;20038;-86
2022/06/05 01:12:27;;;;;;;4.82;2.60;;;17.10;71.70;;;;;;2088904;28;20112;-87
2022/06/05 01:13:58;;;;;;;4.13;2.50;;;17.10;71.70;;;;;;2089754;28;20483;-87
2022/06/05 01:15:32;;;;;;;5.05;2.50;;;17.10;71.70;;;;;;2089859;28;20037;-87
2022/06/05 01:17:11;;;;;;;4.88;2.30;;;17.10;71.70;;;;;;2089845;28;20041;-87
2022/06/05 01:19:00;;;;;;;3.97;2.05;;;17.10;71.80;;;;;;2080962;28;20057;-87
2022/06/05 01:20:46;;;;;;;6.03;2.67;;;17.00;71.80;;;;;;2080904;28;20021;-87
2022/06/05 01:22:34;;;;;;;5.35;2.78;;;17.00;71.90;;;;;;2089669;28;20033;-86
2022/06/05 01:24:22;;;;;;;5.18;3.08;;;17.00;71.90;;;;;;2081220;28;20388;-87
2022/06/05 01:26:01;;;;;;;4.82;2.88;;;17.00;72.00;;;;;;2089893;28;20037;-87
2022/06/05 01:27:25;;;;;;;4.00;2.50;;;17.00;72.10;;;;;;2089330;28;20477;-88
2022/06/05 01:28:58;;;;;;;4.85;2.72;;;16.90;72.10;;;;;;2089258;28;20515;-87
2022/06/05 01:30:21;;;;;;;4.38;2.65;;;17.00;72.20;;;;;;2085311;28;20060;-87
2022/06/05 01:32:12;;;;;;;5.40;2.78;;;16.90;72.20;;;;;;2095484;28;20037;-87
2022/06/05 01:33:33;;;;;;;5.03;2.97;;;16.90;72.40;;;;;;2075756;28;20038;-87
2022/06/05 01:34:54;;;;;;;;;;;16.90;72.40;;;;;;2086482;28;20041;-88
2022/06/05 01:36:37;;;;;;;5.15;2.72;;;16.90;72.60;;;;;;2089602;28;19999;-87
2022/06/05 01:38:15;;;;;;;3.95;2.60;;;16.80;72.50;;;;;;2080852;28;20104;-87
2022/06/05 01:39:52;;;;;;;4.60;2.80;;;16.80;73.20;;;;;;2080650;28;20431;-87
2022/06/05 01:41:18;;;;;;;4.63;2.88;;;16.80;72.80;;;;;;2082566;28;20037;-87
2022/06/05 01:42:45;;;;;;;6.03;2.80;;;16.80;72.90;;;;;;2088289;28;20029;-87
2022/06/05 01:44:10;;;;;;;5.53;2.92;;;16.70;73.00;;;;;;2091354;28;20037;-88
2022/06/05 01:45:40;;;;;;;5.93;3.22;;;16.70;73.10;;;;;;2082460;28;20034;-87
2022/06/05 01:47:15;;;;;;;6.28;3.50;;;16.70;73.20;;;;;;2089197;28;20029;-86
2022/06/05 01:48:56;;;;;;;5.20;3.45;;;16.70;73.50;;;;;;2089028;28;20025;-87
2022/06/05 01:50:50;;;;;;;5.63;3.22;;;16.60;73.50;;;;;;2090236;28;20029;-88
2022/06/05 01:52:53;;;;;;;5.15;3.03;;;16.60;73.60;;;;;;2074618;28;20041;-88
2022/06/05 01:54:19;;;;;;;4.82;3.15;;;16.60;73.80;;;;;;2090187;28;20045;-87
2022/06/05 01:55:45;;;;;;;5.85;2.70;;;16.50;73.80;;;;;;2096565;28;20033;-87
2022/06/05 01:57:07;;;;;;;4.28;3.10;;;16.50;73.90;;;;;;2090400;28;20502;-87
2022/06/05 01:58:34;;;;;;;4.53;2.80;;;16.50;74.00;;;;;;2095989;28;20033;-87
2022/06/05 02:00:05;;;;;;;4.80;3.25;;;16.50;74.20;;;;;;2090454;28;20045;-86
2022/06/05 02:01:27;;;;;;;;;;;16.50;74.20;;;;;;2092878;28;20390;-87
2022/06/05 02:03:06;;;;;;;5.60;3.38;;;16.40;74.50;;;;;;2099308;28;19904;-88
2022/06/05 02:04:46;;;;;;;4.47;2.80;;;16.40;74.30;;;;;;2090330;28;20028;-88
2022/06/05 02:06:13;;;;;;;4.72;3.10;;;16.40;74.40;;;;;;2090860;28;20096;-87
2022/06/05 02:07:47;;;;;;;4.88;2.83;;;16.40;74.50;;;;;;2082333;28;20034;-87
2022/06/05 02:09:39;;;;;;;4.75;2.95;;;16.40;74.50;;;;;;2089113;28;20033;-87
2022/06/05 02:11:07;;;;;;;5.50;2.78;;;16.30;74.70;;;;;;2090996;28;20483;-87
2022/06/05 02:12:26;;;;;;;5.20;2.78;;;16.30;74.60;;;;;;2082307;28;20049;-87
2022/06/05 02:13:46;;;;;;;4.88;2.95;;;16.30;74.80;;;;;;2087768;28;20458;-87
2022/06/05 02:15:06;;;;;;;5.85;3.42;;;16.30;74.90;;;;;;2081940;28;20029;-87
2022/06/05 02:16:28;;;;;;;5.72;3.30;;;16.30;75.10;;;;;;2089124;28;20033;-87
2022/06/05 02:17:48;;;;;;;5.90;3.00;;;16.30;75.20;;;;;;2090982;28;20021;-87
2022/06/05 02:19:12;;;;;;;6.00;3.38;;;16.30;75.30;;;;;;2082094;28;20116;-87
2022/06/05 02:20:31;;;;;;;6.38;3.53;;;16.20;75.30;;;;;;2079593;28;20033;-86
2022/06/05 02:21:54;;;;;;;4.97;3.35;;;16.20;75.40;;;;;;2079352;28;20034;-86
2022/06/05 02:23:17;;;;;;;5.50;3.47;;;16.20;75.60;;;;;;2087950;28;20107;-87
2022/06/05 02:24:37;;;;;;;5.90;3.28;;;16.20;75.70;;;;;;2090977;28;20108;-87
2022/06/05 02:25:56;;;;;;;4.97;3.30;;;16.20;75.80;;;;;;2073667;28;20038;-85
2022/06/05 02:27:20;;;;;;;6.32;3.30;;;16.20;75.80;;;;;;2078820;28;20030;-87
2022/06/05 02:28:39;;;;;;;5.53;3.20;;;16.20;76.00;;;;;;2088218;28;20033;-86
2022/06/05 02:29:59;;;;;;;5.03;3.55;;;16.20;76.10;;;;;;2096410;28;20036;-87
2022/06/05 02:31:27;;;;;;;5.47;3.47;;;16.10;76.10;;;;;;2102346;28;20040;-87
2022/06/05 02:33:00;;;;;;;5.18;3.25;;;16.10;76.20;;;;;;2090739;28;20025;-86
2022/06/05 02:34:52;;;;;;;7.07;3.60;;;16.10;76.30;;;;;;2090240;28;20029;-87
2022/06/05 02:36:24;;;;;;;6.00;3.47;;;16.10;76.40;;;;;;2090274;28;20049;-86
2022/06/05 02:37:58;;;;;;;4.00;2.97;;;16.10;76.40;;;;;;2090795;28;20073;-88
2022/06/05 02:39:35;;;;;;;5.75;3.53;;;16.00;76.40;;;;;;2091010;28;20538;-86
2022/06/05 02:41:04;;;;;;;7.25;3.72;;;16.00;76.60;;;;;;2089421;28;20033;-87
2022/06/05 02:42:55;;;;;;;5.75;3.75;;;16.00;76.70;;;;;;2096982;28;20502;-88
2022/06/05 02:44:29;;;;;;;5.00;3.67;;;15.90;76.80;;;;;;2090566;28;20056;-87
2022/06/05 02:46:04;;;;;;;6.30;3.72;;;15.90;76.90;;;;;;2089254;28;20040;-88
2022/06/05 02:47:44;;;;;;;7.13;4.10;;;15.80;76.90;;;;;;2089362;28;20033;-88
2022/06/05 02:49:22;;;;;;;6.95;3.65;;;15.90;77.10;;;;;;2090893;28;20112;-87
2022/06/05 02:50:49;;;;;;;6.35;3.67;;;15.80;77.10;;;;;;2089059;28;20025;-86
2022/06/05 02:52:09;;;;;;;6.25;3.65;;;15.80;77.20;;;;;;2096454;28;20052;-87
2022/06/05 02:53:28;;;;;;;7.20;3.63;;;15.80;77.30;;;;;;2090047;28;20483;-87
2022/06/05 02:54:55;;;;;;;5.28;3.60;;;15.80;77.40;;;;;;2095228;28;20052;-87
2022/06/05 02:56:16;;;;;;;6.32;3.60;;;15.80;77.60;;;;;;2099712;28;20032;-88
2022/06/05 02:57:35;;;;;;;5.97;3.55;;;15.70;77.60;;;;;;2098834;28;20476;-87
2022/06/05 02:58:59;;;;;;;5.32;3.58;;;15.70;77.70;;;;;;2081790;28;20037;-87
2022/06/05 03:00:24;;;;;;;5.35;3.67;;;15.70;77.70;;;;;;2084452;28;20060;-87
2022/06/05 03:03:27;;;;;;;5.53;3.30;;;15.70;77.70;;;;;;2090150;28;20045;-87
2022/06/05 03:04:47;;;;;;;5.82;3.42;;;15.70;77.80;;;;;;2098717;28;20028;-86
2022/06/05 03:06:06;;;;;;;7.70;3.78;;;15.70;78.50;;;;;;2081845;28;20514;-87
2022/06/05 03:07:26;;;;;;;6.25;3.45;;;15.70;78.00;;;;;;2075291;28;20072;-88
2022/06/05 03:08:45;;;;;;;6.03;3.92;;;15.70;78.00;;;;;;2083922;28;20144;-87
2022/06/05 03:10:05;;;;;;;6.95;4.10;;;15.70;78.10;;;;;;2078513;28;20029;-87
2022/06/05 03:11:25;;;;;;;6.00;3.58;;;15.70;78.20;;;;;;2086748;28;20033;-87
2022/06/05 03:12:45;;;;;;;7.25;3.83;;;15.70;78.20;;;;;;2086577;28;20566;-87
2022/06/05 03:14:05;;;;;;;5.57;3.90;;;15.60;78.20;;;;;;2070010;28;20046;-87
2022/06/05 03:15:24;;;;;;;5.80;3.85;;;15.60;78.30;;;;;;2075619;28;20245;-87
2022/06/05 03:16:43;;;;;;;6.03;3.80;;;15.60;78.40;;;;;;2078502;28;20116;-88
2022/06/05 03:18:03;;;;;;;6.10;3.97;;;15.60;78.50;;;;;;2078482;28;20041;-88
2022/06/05 03:19:22;;;;;;;6.13;3.90;;;15.60;78.50;;;;;;2086978;28;20112;-86
2022/06/05 03:20:42;;;;;;;5.97;3.90;;;15.60;78.50;;;;;;2081816;28;20029;-88
2022/06/05 03:22:01;;;;;;;5.72;3.90;;;15.60;78.60;;;;;;2078521;28;20037;-87
2022/06/05 03:23:20;;;;;;;6.57;4.00;;;15.60;78.70;;;;;;2078482;28;20419;-87
2022/06/05 03:24:39;;;;;;;6.68;4.00;;;15.60;78.80;;;;;;2070319;28;20042;-87
2022/06/05 03:25:59;;;;;;;6.38;3.70;;;15.60;78.80;;;;;;2070350;28;20034;-86
2022/06/05 03:27:19;;;;;;;8.37;4.50;;;15.60;78.80;;;;;;2080627;28;20029;-88
2022/06/05 03:28:39;;;;;;;6.70;4.10;;;15.60;78.90;;;;;;2083062;28;20100;-87
2022/06/05 03:29:59;;;;;;;6.45;3.97;;;15.50;78.90;;;;;;2087007;28;20060;-87
2022/06/05 03:31:18;;;;;;;5.43;3.80;;;15.50;79.00;;;;;;2083541;28;20017;-87
2022/06/05 03:32:37;;;;;;;5.80;4.03;;;15.60;79.10;;;;;;2078393;28;20116;-86
2022/06/05 03:33:57;;;;;;;6.18;4.00;;;15.50;79.10;;;;;;2075232;28;20033;-87
2022/06/05 03:35:17;;;;;;;6.05;4.35;;;15.50;79.90;;;;;;2083478;28;20072;-87
2022/06/05 03:36:36;;;;;;;7.57;4.53;;;15.50;79.30;;;;;;2078579;28;20045;-87
2022/06/05 03:37:55;;;;;;;5.75;3.85;;;15.50;79.30;;;;;;2086533;28;20033;-88
2022/06/05 03:39:14;;;;;;;6.50;4.13;;;15.50;79.30;;;;;;2095169;28;20025;-87
2022/06/05 03:40:34;;;;;;;6.25;3.95;;;15.50;79.30;;;;;;2089493;28;20072;-87
2022/06/05 03:41:53;;;;;;;6.50;4.10;;;15.50;79.40;;;;;;2086602;28;20044;-87
2022/06/05 03:43:13;;;;;;;6.03;3.95;;;15.50;79.40;;;;;;2073439;28;20034;-86
2022/06/05 03:44:39;;;;;;;5.95;3.80;;;15.50;79.40;;;;;;2083321;28;20137;-87
2022/06/05 03:46:01;;;;;;;6.97;3.90;;;15.50;79.40;;;;;;2078904;28;20070;-86
2022/06/05 03:47:21;;;;;;;6.13;3.88;;;15.50;79.40;;;;;;2086817;28;20040;-87
2022/06/05 03:48:41;;;;;;;5.50;3.90;;;15.50;79.40;;;;;;2078344;28;20025;-87
2022/06/05 03:50:00;;;;;;;5.80;3.88;;;15.60;79.40;;;;;;2088229;28;20028;-87
2022/06/05 03:51:22;;;;;;;5.90;3.97;;;15.50;79.40;;;;;;2086216;28;20491;-87
2022/06/05 03:52:42;;;;;;;6.50;4.18;;;15.50;79.50;;;;;;2091939;28;20491;-87
2022/06/05 03:54:01;;;;;;;6.22;4.20;;;15.50;79.60;;;;;;2102747;28;20028;-86
2022/06/05 03:55:22;;;;;;;5.38;3.60;;;15.50;79.70;;;;;;2081438;28;20522;-87
2022/06/05 03:56:41;;;;;;;7.65;4.63;;;15.50;79.70;;;;;;2078511;28;20029;-87
2022/06/05 03:58:00;;;;;;;5.97;3.80;;;15.50;79.80;;;;;;2074858;28;20064;-87
2022/06/05 03:59:20;;;;;;;5.95;3.80;;;15.50;79.80;;;;;;2064339;28;20038;-87
2022/06/05 04:00:41;;;;;;;5.33;3.70;;;15.50;79.70;;;;;;2069697;28;20029;-87
2022/06/05 04:02:01;;;;;;;5.68;3.72;;;15.50;79.70;;;;;;2078639;28;20471;-87
2022/06/05 04:03:21;;;;;;;5.60;3.72;;;15.50;79.70;;;;;;2082071;28;20033;-87
2022/06/05 04:04:40;;;;;;;5.50;3.72;;;15.50;79.70;;;;;;2073663;28;20677;-87
2022/06/05 04:05:59;;;;;;;5.30;3.65;;;15.50;79.70;;;;;;2061878;28;20030;-87
2022/06/05 04:07:19;;;;;;;6.05;3.92;;;15.50;79.70;;;;;;2067081;28;20508;-87
2022/06/05 04:08:40;;;;;;;5.15;3.58;;;15.60;79.70;;;;;;2078185;28;20029;-87
2022/06/05 04:09:59;;;;;;;6.45;3.80;;;15.60;79.70;;;;;;2081115;28;20045;-87
2022/06/05 04:11:19;;;;;;;7.20;3.78;;;15.60;79.70;;;;;;2065017;28;20026;-87
2022/06/05 04:12:38;;;;;;;4.82;3.30;;;15.60;79.60;;;;;;2069982;28;20038;-87
2022/06/05 04:13:58;;;;;;;5.70;3.58;;;15.60;79.60;;;;;;2069781;28;20033;-88
2022/06/05 04:15:17;;;;;;;6.20;4.15;;;15.70;79.60;;;;;;2070122;28;20038;-86
2022/06/05 04:16:39;;;;;;;6.25;3.70;;;15.60;79.60;;;;;;2053954;28;20034;-87
2022/06/05 04:17:58;;;;;;;5.13;3.45;;;15.70;79.60;;;;;;2064993;28;20132;-87
2022/06/05 04:19:18;;;;;;;5.65;3.78;;;15.70;79.60;;;;;;2061830;28;20568;-87
2022/06/05 04:20:39;;;;;;;7.45;4.05;;;15.70;79.60;;;;;;2061564;28;20030;-87
2022/06/05 04:22:00;;;;;;;5.40;3.67;;;15.70;79.60;;;;;;2075862;28;20464;-86
2022/06/05 04:23:19;;;;;;;5.20;3.88;;;15.70;80.20;;;;;;2081734;28;20026;-87
2022/06/05 04:24:38;;;;;;;5.70;3.70;;;15.70;79.60;;;;;;2073050;28;20046;-87
2022/06/05 04:25:58;;;;;;;6.13;4.20;;;15.70;79.60;;;;;;2069964;28;20518;-87
2022/06/05 04:27:17;;;;;;;6.30;3.70;;;15.80;79.60;;;;;;2070074;28;20486;-87
2022/06/05 04:28:37;;;;;;;5.68;3.95;;;15.70;79.50;;;;;;2065194;28;20026;-87
2022/06/05 04:29:58;;;;;;;6.60;3.92;;;15.80;79.60;;;;;;2067833;28;20026;-87
2022/06/05 04:31:25;;;;;;;6.43;3.83;;;15.80;79.60;;;;;;2086914;28;20028;-87
2022/06/05 04:32:44;;;;;;;6.28;3.80;;;15.80;79.50;;;;;;2089609;28;20025;-87
2022/06/05 04:34:09;;;;;;;6.05;3.85;;;15.80;79.40;;;;;;2089535;28;20044;-86
2022/06/05 04:35:28;;;;;;;7.15;3.95;;;15.80;79.40;;;;;;2089929;28;20129;-87
2022/06/05 04:36:47;;;;;;;5.95;3.80;;;15.90;79.40;;;;;;2081196;28;20112;-86
2022/06/05 04:38:06;;;;;;;6.22;3.97;;;15.90;79.40;;;;;;2078671;28;20029;-87
2022/06/05 04:39:26;;;;;;;6.18;3.97;;;15.90;80.00;;;;;;2069738;28;20037;-87
2022/06/05 04:40:45;;;;;;;5.13;3.65;;;15.90;79.30;;;;;;2061653;28;20034;-87
2022/06/05 04:42:04;;;;;;;5.32;3.70;;;15.90;79.30;;;;;;2058541;28;20516;-88
2022/06/05 04:43:23;;;;;;;5.82;3.92;;;15.90;79.30;;;;;;2066581;28;20034;-89
2022/06/05 04:44:43;;;;;;;6.28;3.85;;;15.90;79.20;;;;;;2061562;28;20122;-87
2022/06/05 04:46:03;;;;;;;4.85;3.40;;;16.00;79.30;;;;;;2061808;28;20034;-87
2022/06/05 04:47:22;;;;;;;6.10;3.42;;;16.00;79.20;;;;;;2070142;28;20034;-87
2022/06/05 04:48:41;;;;;;;6.50;4.03;;;16.00;79.20;;;;;;2070852;28;20416;-87
2022/06/05 04:50:00;;;;;;;5.32;3.78;;;16.00;79.20;;;;;;2073653;28;20041;-86
2022/06/05 04:51:20;;;;;;;5.38;3.75;;;16.00;79.10;;;;;;2072877;28;20087;-87
2022/06/05 04:52:39;;;;;;;5.53;3.70;;;16.10;79.20;;;;;;2078352;28;20029;-87
2022/06/05 04:54:01;;;;;;;5.93;4.10;;;16.10;79.10;;;;;;2072964;28;20428;-87
2022/06/05 04:55:21;;;;;;;6.22;3.95;;;16.10;79.10;;;;;;2078899;28;20177;-86
2022/06/05 04:56:40;;;;;;;6.68;3.95;;;16.10;79.00;;;;;;2086452;28;20480;-87
2022/06/05 04:58:00;;;;;;;6.07;4.03;;;16.20;79.60;;;;;;2076101;28;20038;-88
2022/06/05 04:59:19;;;;;;;6.50;3.83;;;16.20;79.00;;;;;;2085801;28;20503;-87
2022/06/05 05:00:41;;;;;;;6.63;3.50;;;16.20;78.80;;;;;;2084676;28;20049;-87
2022/06/05 05:02:01;;;;;;;6.10;3.65;;;16.30;78.80;;;;;;2081227;28;20061;-86
2022/06/05 05:03:20;;;;;;;5.63;3.70;;;16.30;78.70;;;;;;2084050;28;20025;-88
2022/06/05 05:04:39;;;;;;;4.80;3.30;;;16.30;78.60;;;;;;2072890;28;20120;-87
2022/06/05 05:05:58;;;;;;;7.07;3.70;;;16.30;78.60;;;;;;2069711;28;20412;-87
2022/06/05 05:07:17;;;;;;;5.45;3.42;;;16.40;78.70;;;;;;2078344;28;20034;-86
2022/06/05 05:08:37;;;;;;;6.07;4.00;;;16.40;78.60;;;;;;2064715;28;20038;-86
2022/06/05 05:09:56;;;;;;;6.07;3.80;;;16.40;78.60;;;;;;2074680;28;20053;-87
2022/06/05 05:11:17;;;;;;;6.15;4.18;;;16.40;78.50;;;;;;2059837;28;20490;-86
2022/06/05 05:12:36;;;;;;;5.68;4.13;;;16.40;78.50;;;;;;2078877;28;20017;-87
2022/06/05 05:13:57;;;;;;;6.22;4.00;;;16.40;78.50;;;;;;2094615;28;20059;-87
2022/06/05 05:15:17;;;;;;;6.57;3.80;;;16.40;78.50;;;;;;2090799;28;20407;-86
2022/06/05 05:16:36;;;;;;;8.02;4.00;;;16.40;78.50;;;;;;2079327;28;20034;-87
2022/06/05 05:17:57;;;;;;;6.00;3.67;;;16.40;78.50;;;;;;2092851;28;20036;-87
2022/06/05 05:19:17;;;;;;;5.78;3.65;;;16.50;78.50;;;;;;2090926;28;20067;-87
2022/06/05 05:20:36;;;;;;;5.97;4.00;;;16.50;78.50;;;;;;2082418;28;20439;-87
2022/06/05 05:21:55;;;;;;;5.97;3.95;;;16.50;78.40;;;;;;2084498;28;20025;-86
2022/06/05 05:23:15;;;;;;;5.43;4.03;;;16.50;78.50;;;;;;2095955;28;20068;-87
2022/06/05 05:24:34;;;;;;;6.75;3.75;;;16.50;79.10;;;;;;2099554;28;20037;-86
2022/06/05 05:25:53;;;;;;;5.93;3.78;;;16.50;78.40;;;;;;2082635;28;20045;-87
2022/06/05 05:27:13;;;;;;;5.97;3.88;;;16.50;78.40;;;;;;2074169;28;20034;-87
2022/06/05 05:28:32;;;;;;;5.45;3.90;;;16.50;78.40;;;;;;2071156;28;20030;-87
2022/06/05 05:29:51;;;;;;;4.88;3.58;;;16.50;78.40;;;;;;2070295;28;20022;-86
2022/06/05 05:31:18;;;;;;;7.00;4.07;;;16.50;78.40;;;;;;2079404;28;20061;-87
2022/06/05 05:32:38;;;;;;;5.50;3.85;;;16.50;78.40;;;;;;2088914;28;20502;-88
2022/06/05 05:33:59;;;;;;;5.55;3.58;;;16.50;78.40;;;;;;2082632;28;20138;-87
2022/06/05 05:35:22;;;;;;;6.05;3.80;;;16.50;78.40;;;;;;2087737;28;20523;-87
2022/06/05 05:36:41;;;;;;;5.88;3.85;;;16.60;79.10;;;;;;2082389;28;20511;-87
2022/06/05 05:38:01;;;;;;;5.38;3.83;;;16.50;78.40;;;;;;2085008;28;20032;-87
2022/06/05 05:42:36;;;;;;;4.90;3.50;;;16.50;78.50;;;;;;2083874;28;20041;-87
2022/06/05 05:43:55;;;;;;;6.28;4.18;;;16.50;78.50;;;;;;2090472;28;20251;-87
2022/06/05 05:45:14;;;;;;;6.97;4.57;;;16.50;78.60;;;;;;2091304;28;20033;-87
2022/06/05 05:46:33;;;;;;;6.85;4.30;;;16.40;78.60;;;;;;2091082;28;20048;-87
2022/06/05 05:47:53;;;;;;;6.70;4.60;;;16.40;78.70;;;;;;2085448;28;20419;-86
2022/06/05 05:49:14;;;;;;;6.47;4.65;;;16.40;78.80;;;;;;2082440;28;20037;-87
2022/06/05 05:50:33;;;;;;;7.55;4.80;;;16.40;78.80;;;;;;2079380;28;20496;-87
2022/06/05 05:51:52;;;;;;;8.30;5.03;;;16.40;78.80;;;;;;2071158;28;20038;-86
2022/06/05 05:53:12;;;;;;;8.02;4.75;;;16.40;78.90;;;;;;2075788;28;20539;-86
2022/06/05 05:54:33;;;;;;;6.13;4.47;;;16.40;79.00;;;;;;2087154;28;20124;-86
2022/06/05 05:55:52;;;;;;;;;;;16.40;79.00;;;;;;2074603;28;20869;-87
2022/06/05 05:57:11;;;;;;;5.97;4.20;;;16.30;78.90;;;;;;2082338;28;19913;-87
2022/06/05 05:58:30;;;;;;;5.78;4.22;;;16.30;78.80;;;;;;2082015;28;20021;-87
2022/06/05 05:59:50;;;;;;;6.40;4.55;;;16.30;78.80;;;;;;2082012;28;20451;-87
2022/06/05 06:01:12;;;;;;;5.70;4.20;;;16.40;78.90;;;;;;2065979;28;20034;-86
2022/06/05 06:02:32;;;;;;;6.72;4.80;;;16.30;78.90;;;;;;2060715;28;20476;-86
2022/06/05 06:03:51;;;;;;;6.13;4.60;;;16.40;79.00;;;;;;2077134;28;20029;-87
2022/06/05 06:05:16;;;;;;;6.72;4.60;;;16.40;79.10;;;;;;2074022;28;20453;-87
2022/06/05 06:06:39;;;;;;;6.45;4.78;;;16.40;79.10;;;;;;2071683;28;20552;-87
2022/06/05 06:07:58;;;;;;;6.00;4.40;;;16.40;79.10;;;;;;2071434;28;20112;-86
2022/06/05 06:09:19;;;;;;;7.15;4.45;;;16.40;79.10;;;;;;2070791;28;20038;-86
2022/06/05 06:10:39;;;;;;;7.03;4.43;;;16.40;79.10;;;;;;2068542;28;20026;-88
2022/06/05 06:11:58;;;;;;;6.15;4.30;;;16.40;79.00;;;;;;2068022;28;20484;-87
2022/06/05 06:13:17;;;;;;;6.45;4.35;;;16.40;79.00;;;;;;2078843;28;20034;-87
2022/06/05 06:14:37;;;;;;;6.43;4.60;;;16.40;79.10;;;;;;2087412;28;20061;-87
2022/06/05 06:15:56;;;;;;;6.60;3.90;;;16.40;79.10;;;;;;2082259;28;20034;-87
2022/06/05 06:17:16;;;;;;;5.18;3.70;;;16.40;79.00;;;;;;2073988;28;20475;-87
2022/06/05 06:18:35;;;;;;;5.70;4.10;;;16.40;78.90;;;;;;2067719;28;20065;-87
2022/06/05 06:19:54;;;;;;;7.30;4.47;;;16.40;78.90;;;;;;2075374;28;20484;-86
2022/06/05 06:21:14;;;;;;;5.80;4.07;;;16.40;78.90;;;;;;2073450;28;20120;-87
2022/06/05 06:22:35;;;;;;;5.80;4.10;;;16.50;78.90;;;;;;2079283;28;20041;-86
2022/06/05 06:23:54;;;;;;;5.57;4.20;;;16.50;78.80;;;;;;2065877;28;20031;-87
2022/06/05 06:25:14;;;;;;;5.60;4.20;;;16.50;78.80;;;;;;2062620;28;20485;-86
2022/06/05 06:26:33;;;;;;;6.35;4.13;;;16.50;78.80;;;;;;2059616;28;20484;-87
2022/06/05 06:27:52;;;;;;;6.63;4.22;;;16.50;78.70;;;;;;2073055;28;20038;-87
2022/06/05 06:29:11;;;;;;;6.03;3.70;;;16.60;78.70;;;;;;2078758;28;20013;-87
2022/06/05 06:30:33;;;;;;;5.20;3.70;;;16.60;79.30;;;;;;2079339;28;20053;-87
2022/06/05 06:31:52;;;;;;;5.35;3.80;;;16.60;78.60;;;;;;2093310;28;20107;-87
2022/06/05 06:33:12;;;;;;;5.80;3.85;;;16.60;78.60;;;;;;2090086;28;20033;-87
2022/06/05 06:34:31;;;;;;;6.20;4.07;;;16.60;78.50;;;;;;2086968;28;20041;-87
2022/06/05 06:35:51;;;;;;;5.78;3.80;;;16.70;78.60;;;;;;2095599;28;20040;-87
2022/06/05 06:37:10;;;;;;;5.93;3.83;;;16.70;78.50;;;;;;2085354;28;20028;-86
2022/06/05 06:38:29;;;;;;;5.63;3.90;;;16.70;78.40;;;;;;2062778;28;20034;-86
2022/06/05 06:39:48;;;;;;;7.63;4.40;;;16.70;78.40;;;;;;2067340;28;20026;-87
2022/06/05 06:41:15;;;;;;;5.18;3.72;;;16.80;78.40;;;;;;2084386;28;20033;-88
2022/06/05 06:42:34;;;;;;;4.65;3.55;;;16.80;78.30;;;;;;2081895;28;20025;-87
2022/06/05 06:43:53;;;;;;;6.70;4.13;;;16.80;78.20;;;;;;2062531;28;20030;-88
2022/06/05 06:45:13;;;;;;;5.60;3.67;;;16.90;78.20;;;;;;2075529;28;20021;-87
2022/06/05 06:46:32;;;;;;;5.45;3.45;;;16.90;78.10;;;;;;2070639;28;20045;-87
2022/06/05 06:47:52;;;;;;;5.97;3.33;;;16.90;78.00;;;;;;2075781;28;20033;-87
2022/06/05 06:49:11;;;;;;;4.47;3.17;;;17.00;78.00;;;;;;2065516;28;20438;-87
2022/06/05 06:50:31;;;;;;;5.00;3.53;;;17.00;77.90;;;;;;2075865;28;20033;-87
2022/06/05 06:51:50;;;;;;;6.40;3.53;;;17.00;77.80;;;;;;2068754;28;20030;-87
2022/06/05 06:53:09;;;;;;;6.10;3.40;;;17.10;77.90;;;;;;2067356;28;20147;-87
2022/06/05 06:54:29;;;;;;;5.88;3.85;;;17.10;77.80;;;;;;2065993;28;20050;-86
2022/06/05 06:55:49;;;;;;;6.72;3.85;;;17.10;77.80;;;;;;2083424;28;20041;-86
2022/06/05 06:57:09;;;;;;;5.93;3.67;;;17.10;78.30;;;;;;2081391;28;20053;-87
2022/06/05 06:58:29;;;;;;;5.00;3.15;;;17.20;77.70;;;;;;2094700;28;20479;-87
2022/06/05 06:59:48;;;;;;;6.20;3.33;;;17.20;77.60;;;;;;2088221;28;20383;-88
2022/06/05 07:01:08;;;;;;;5.63;3.08;;;17.20;77.50;;;;;;2094988;28;20052;-87
2022/06/05 07:02:27;;;;;;;4.75;3.10;;;17.30;77.40;;;;;;2089658;28;20104;-87
2022/06/05 07:03:47;;;;;;;4.95;3.42;;;17.30;77.40;;;;;;2077984;28;20084;-87
2022/06/05 07:05:06;;;;;;;5.15;3.55;;;17.30;77.30;;;;;;2078023;28;20068;-86
2022/06/05 07:06:26;;;;;;;5.28;3.45;;;17.30;77.20;;;;;;2074823;28;20507;-87
2022/06/05 07:07:45;;;;;;;5.55;3.60;;;17.40;77.20;;;;;;2083481;28;20503;-88
2022/06/05 07:09:04;;;;;;;5.82;3.47;;;17.40;77.10;;;;;;2077956;28;20033;-88
2022/06/05 07:10:23;;;;;;;4.50;3.20;;;17.50;77.00;;;;;;2073359;28;20042;-87
2022/06/05 07:11:42;;;;;;;4.63;3.30;;;17.50;76.90;;;;;;2083915;28;20025;-87
2022/06/05 07:13:02;;;;;;;4.07;2.88;;;17.60;76.80;;;;;;2089566;28;20100;-87
2022/06/05 07:14:21;;;;;;;7.50;3.58;;;17.60;76.70;;;;;;2081217;28;20041;-87
2022/06/05 07:15:40;;;;;;;5.30;3.70;;;17.70;76.60;;;;;;2086828;28;20033;-87
2022/06/05 07:16:59;;;;;;;4.32;2.75;;;17.70;76.50;;;;;;2073282;28;20029;-88
2022/06/05 07:18:19;;;;;;;6.53;3.38;;;17.80;76.50;;;;;;2074917;28;20555;-88
2022/06/05 07:19:39;;;;;;;5.15;3.45;;;17.80;76.40;;;;;;2078177;28;20034;-87
2022/06/05 07:21:06;;;;;;;6.30;3.85;;;17.90;76.30;;;;;;2077961;28;20025;-87